createdAt,value
2023-03-29T00:00:15.282Z,92463.75
2023-03-29T00:03:01.177Z,92470.31
2023-03-29T00:05:47.097Z,92458.66
2023-03-29T00:08:32.968Z,92468.91
2023-03-29T00:11:20.802Z,92492.38
2023-03-29T00:14:06.731Z,92482.09
2023-03-29T00:16:52.752Z,92493.31
2023-03-29T00:19:38.575Z,92506.47
2023-03-29T00:22:24.629Z,92491.59
2023-03-29T00:25:10.395Z,92480.31
2023-03-29T00:27:56.389Z,92465.56
2023-03-29T00:30:42.214Z,92462.28
2023-03-29T00:33:28.069Z,92466.59
2023-03-29T00:36:13.910Z,92457.03
2023-03-29T00:38:59.819Z,92440.78
2023-03-29T00:41:45.533Z,92445.53
2023-03-29T00:44:31.494Z,92436.75
2023-03-29T00:47:17.309Z,92435.06
2023-03-29T00:50:03.298Z,92437.25
2023-03-29T00:52:49.182Z,92429.84
2023-03-29T00:55:35.153Z,92414.47
2023-03-29T00:58:20.963Z,92411.13
2023-03-29T01:01:06.917Z,92402.56
2023-03-29T01:03:52.817Z,92406.34
2023-03-29T01:06:38.756Z,92424.38
2023-03-29T01:09:24.485Z,92444.91
2023-03-29T01:12:10.261Z,92466.41
2023-03-29T01:14:56.146Z,92453.47
2023-03-29T01:17:44.124Z,92446.44
2023-03-29T01:20:30.089Z,92449.28
2023-03-29T01:23:15.959Z,92442.09
2023-03-29T01:26:01.841Z,92446.34
2023-03-29T01:28:47.628Z,92445.03
2023-03-29T01:31:33.489Z,92441.66
2023-03-29T01:34:19.750Z,92438.44
2023-03-29T01:37:05.653Z,92442.16
2023-03-29T01:39:51.476Z,92419.78
2023-03-29T01:42:37.437Z,92409.94
2023-03-29T01:45:23.407Z,92410.31
2023-03-29T01:48:09.208Z,92413.97
2023-03-29T01:50:55.086Z,92419.69
2023-03-29T01:53:40.869Z,92422.25
2023-03-29T01:56:26.913Z,92441.34
2023-03-29T01:59:12.948Z,92467.97
2023-03-29T02:02:00.885Z,92467.72
2023-03-29T02:04:46.828Z,92445.81
2023-03-29T02:07:32.813Z,92443.63
2023-03-29T02:10:18.722Z,92435.31
2023-03-29T02:13:04.677Z,92426.09
2023-03-29T02:15:50.635Z,92419.09
2023-03-29T02:18:36.549Z,92432.66
2023-03-29T02:21:22.485Z,92446.50
2023-03-29T02:24:08.411Z,92446.97
2023-03-29T02:26:54.270Z,92438.59
2023-03-29T02:29:40.225Z,92435.50
2023-03-29T02:32:26.043Z,92434.50
2023-03-29T02:35:11.935Z,92441.81
2023-03-29T02:37:57.771Z,92450.53
2023-03-29T02:40:43.678Z,92448.44
2023-03-29T02:43:29.593Z,92443.84
2023-03-29T02:46:15.414Z,92426.50
2023-03-29T02:49:01.303Z,92433.66
2023-03-29T02:51:47.243Z,92451.28
2023-03-29T02:54:33.076Z,92448.66
2023-03-29T02:57:19.190Z,92441.72
2023-03-29T03:00:05.134Z,92434.63
2023-03-29T03:02:51.143Z,92436.28
2023-03-29T03:05:37.318Z,92416.69
2023-03-29T03:08:22.977Z,92423.78
2023-03-29T03:11:08.947Z,92419.63
2023-03-29T03:13:54.769Z,92412.25
2023-03-29T03:16:40.736Z,92425.16
2023-03-29T03:19:26.771Z,92429.63
2023-03-29T03:22:12.568Z,92428.13
2023-03-29T03:24:58.541Z,92421.88
2023-03-29T03:27:44.393Z,92411.38
2023-03-29T03:30:30.207Z,92421.22
2023-03-29T03:33:16.090Z,92423.63
2023-03-29T03:36:02.152Z,92417.19
2023-03-29T03:38:48.323Z,92418.53
2023-03-29T03:41:34.364Z,92400.22
2023-03-29T03:44:20.172Z,92403.59
2023-03-29T03:47:06.158Z,92400.03
2023-03-29T03:49:51.953Z,92403.69
2023-03-29T03:52:37.812Z,92403.00
2023-03-29T03:55:23.721Z,92412.31
2023-03-29T03:58:09.675Z,92389.34
2023-03-29T04:00:55.576Z,92383.47
2023-03-29T04:03:41.585Z,92372.25
2023-03-29T04:06:27.758Z,92376.97
2023-03-29T04:09:13.652Z,92383.16
2023-03-29T04:11:59.644Z,92381.75
2023-03-29T04:14:45.470Z,92384.72
2023-03-29T04:17:31.495Z,92387.06
2023-03-29T04:20:17.374Z,92380.63
2023-03-29T04:23:03.202Z,92390.38
2023-03-29T04:25:49.197Z,92379.50
2023-03-29T04:28:35.004Z,92378.19
2023-03-29T04:31:20.923Z,92380.25
2023-03-29T04:34:06.817Z,92391.09
2023-03-29T04:36:52.621Z,92383.06
2023-03-29T04:39:38.367Z,92383.44
2023-03-29T04:42:24.253Z,92379.41
2023-03-29T04:45:10.271Z,92384.03
2023-03-29T04:47:56.738Z,92386.84
2023-03-29T04:50:42.842Z,92389.38
2023-03-29T04:53:28.697Z,92379.97
2023-03-29T04:56:14.526Z,92384.06
2023-03-29T04:59:00.450Z,92391.31
2023-03-29T05:01:46.407Z,92388.56
2023-03-29T05:04:32.350Z,92385.50
2023-03-29T05:07:18.394Z,92377.34
2023-03-29T05:10:04.346Z,92374.47
2023-03-29T05:12:50.163Z,92377.84
2023-03-29T05:15:36.047Z,92381.34
2023-03-29T05:18:21.873Z,92377.00
2023-03-29T05:21:07.884Z,92387.91
2023-03-29T05:23:54.260Z,92385.81
2023-03-29T05:26:40.021Z,92383.81
2023-03-29T05:29:25.833Z,92389.47
2023-03-29T05:32:11.879Z,92386.81
2023-03-29T05:35:05.173Z,92385.19
2023-03-29T05:37:50.979Z,92392.03
2023-03-29T05:40:36.994Z,92387.34
2023-03-29T05:43:22.910Z,92383.75
2023-03-29T05:46:08.707Z,92382.13
2023-03-29T05:48:54.811Z,92381.47
2023-03-29T05:51:40.628Z,92391.66
2023-03-29T05:54:26.534Z,92393.94
2023-03-29T05:57:12.621Z,92391.06
2023-03-29T05:59:58.838Z,92404.22
2023-03-29T06:02:44.895Z,92399.41
2023-03-29T06:05:31.127Z,92397.25
2023-03-29T06:08:17.036Z,92402.72
2023-03-29T06:11:04.921Z,92408.19
2023-03-29T06:13:51.483Z,92392.91
2023-03-29T06:16:37.297Z,92390.81
2023-03-29T06:19:23.061Z,92395.91
2023-03-29T06:22:08.855Z,92399.09
2023-03-29T06:24:54.638Z,92400.94
2023-03-29T06:27:42.541Z,92408.44
2023-03-29T06:30:28.301Z,92420.75
2023-03-29T06:33:15.436Z,92418.19
2023-03-29T06:36:01.522Z,92418.13
2023-03-29T06:38:47.452Z,92410.41
2023-03-29T06:41:33.302Z,92413.75
2023-03-29T06:44:19.133Z,92415.84
2023-03-29T06:47:04.978Z,92409.31
2023-03-29T06:49:51.048Z,92408.31
2023-03-29T06:52:36.890Z,92416.19
2023-03-29T06:55:22.916Z,92420.34
2023-03-29T06:58:08.975Z,92417.25
2023-03-29T07:00:54.810Z,92414.41
2023-03-29T07:03:40.771Z,92417.34
2023-03-29T07:06:26.651Z,92429.16
2023-03-29T07:09:12.562Z,92425.66
2023-03-29T07:11:58.603Z,92430.59
2023-03-29T07:14:46.272Z,92430.91
2023-03-29T07:17:32.961Z,92430.09
2023-03-29T07:20:18.764Z,92442.63
2023-03-29T07:23:04.929Z,92437.28
2023-03-29T07:25:50.838Z,92445.72
2023-03-29T07:28:36.738Z,92449.72
2023-03-29T07:31:22.606Z,92456.66
2023-03-29T07:34:08.557Z,92448.06
2023-03-29T07:36:54.374Z,92445.34
2023-03-29T07:39:40.268Z,92442.31
2023-03-29T07:42:26.214Z,92441.31
2023-03-29T07:45:12.097Z,92442.31
2023-03-29T07:47:58.107Z,92449.72
2023-03-29T07:50:44.397Z,92448.22
2023-03-29T07:53:30.189Z,92456.66
2023-03-29T07:56:16.213Z,92453.97
2023-03-29T07:59:02.121Z,92450.41
2023-03-29T08:01:48.101Z,92457.75
2023-03-29T08:04:34.308Z,92450.66
2023-03-29T08:07:20.417Z,92461.28
2023-03-29T08:10:06.540Z,92460.69
2023-03-29T08:12:52.594Z,92474.84
2023-03-29T08:15:38.414Z,92482.88
2023-03-29T08:18:24.340Z,92482.41
2023-03-29T08:21:10.042Z,92479.09
2023-03-29T08:23:56.070Z,92482.50
2023-03-29T08:26:41.960Z,92487.16
2023-03-29T08:29:27.916Z,92485.25
2023-03-29T08:32:13.823Z,92477.78
2023-03-29T08:34:59.746Z,92480.22
2023-03-29T08:37:45.537Z,92475.81
2023-03-29T08:40:31.380Z,92475.47
2023-03-29T08:43:17.253Z,92477.78
2023-03-29T08:46:03.039Z,92476.41
2023-03-29T08:48:49.086Z,92475.84
2023-03-29T08:51:36.899Z,92478.53
2023-03-29T08:54:22.826Z,92486.22
2023-03-29T08:57:08.782Z,92477.50
2023-03-29T08:59:54.723Z,92475.84
2023-03-29T09:02:40.877Z,92478.38
2023-03-29T09:05:27.034Z,92470.41
2023-03-29T09:08:12.847Z,92469.09
2023-03-29T09:10:58.762Z,92463.09
2023-03-29T09:13:44.491Z,92463.97
2023-03-29T09:16:30.507Z,92475.22
2023-03-29T09:19:16.630Z,92458.56
2023-03-29T09:22:02.507Z,92459.03
2023-03-29T09:24:48.310Z,92458.84
2023-03-29T09:27:34.336Z,92462.22
2023-03-29T09:30:20.195Z,92465.00
2023-03-29T09:33:06.373Z,92473.63
2023-03-29T09:35:52.657Z,92459.41
2023-03-29T09:38:38.587Z,92454.19
2023-03-29T09:41:24.552Z,92461.06
2023-03-29T09:44:20.582Z,92449.91
2023-03-29T09:47:13.953Z,92463.47
2023-03-29T09:49:59.864Z,92463.47
2023-03-29T09:52:45.804Z,92465.19
2023-03-29T09:55:31.654Z,92469.00
2023-03-29T09:58:18.076Z,92458.63
2023-03-29T10:01:04.121Z,92456.38
2023-03-29T10:03:50.459Z,92458.56
2023-03-29T10:06:36.352Z,92454.19
2023-03-29T10:09:22.312Z,92450.47
2023-03-29T10:12:08.297Z,92450.69
2023-03-29T10:14:54.240Z,92451.00
2023-03-29T10:17:40.783Z,92457.06
2023-03-29T10:20:26.925Z,92444.22
2023-03-29T10:23:12.725Z,92448.75
2023-03-29T10:25:58.601Z,92446.91
2023-03-29T10:28:44.595Z,92449.91
2023-03-29T10:31:30.394Z,92449.16
2023-03-29T10:34:16.370Z,92459.38
2023-03-29T10:37:02.258Z,92456.31
2023-03-29T10:39:48.334Z,92446.56
2023-03-29T10:42:34.236Z,92445.03
2023-03-29T10:45:20.150Z,92444.31
2023-03-29T10:48:06.059Z,92454.13
2023-03-29T10:50:52.035Z,92444.25
2023-03-29T10:53:37.876Z,92446.88
2023-03-29T10:56:23.860Z,92440.88
2023-03-29T10:59:09.755Z,92440.88
2023-03-29T11:01:55.808Z,92456.03
2023-03-29T11:04:41.950Z,92451.81
2023-03-29T11:07:28.025Z,92439.72
2023-03-29T11:10:16.146Z,92441.22
2023-03-29T11:13:01.984Z,92432.16
2023-03-29T11:15:48.017Z,92432.19
2023-03-29T11:18:34.066Z,92446.94
2023-03-29T11:21:19.960Z,92440.50
2023-03-29T11:24:05.807Z,92429.53
2023-03-29T11:26:51.584Z,92431.41
2023-03-29T11:29:37.394Z,92434.06
2023-03-29T11:32:23.311Z,92440.88
2023-03-29T11:35:09.192Z,92441.63
2023-03-29T11:37:55.001Z,92432.16
2023-03-29T11:40:41.122Z,92439.00
2023-03-29T11:43:28.341Z,92431.03
2023-03-29T11:46:14.322Z,92427.25
2023-03-29T11:49:00.271Z,92415.50
2023-03-29T11:51:46.216Z,92434.06
2023-03-29T11:54:32.154Z,92420.44
2023-03-29T11:57:18.047Z,92417.03
2023-03-29T12:00:06.260Z,92413.22
2023-03-29T12:02:52.211Z,92424.22
2023-03-29T12:05:38.554Z,92441.66
2023-03-29T12:08:24.492Z,92422.66
2023-03-29T12:11:10.500Z,92429.13
2023-03-29T12:13:56.268Z,92432.16
2023-03-29T12:16:42.303Z,92418.84
2023-03-29T12:19:28.317Z,92414.59
2023-03-29T12:22:14.098Z,92415.59
2023-03-29T12:25:00.152Z,92412.16
2023-03-29T12:27:45.999Z,92398.78
2023-03-29T12:30:34.152Z,92405.06
2023-03-29T12:33:20.382Z,92400.91
2023-03-29T12:36:06.384Z,92391.84
2023-03-29T12:38:52.276Z,92399.59
2023-03-29T12:41:38.186Z,92405.38
2023-03-29T12:44:24.043Z,92400.50
2023-03-29T12:47:10.054Z,92396.19
2023-03-29T12:49:56.003Z,92401.69
2023-03-29T12:52:42.068Z,92407.78
2023-03-29T12:55:28.036Z,92399.09
2023-03-29T12:58:13.870Z,92401.41
2023-03-29T13:00:59.764Z,92402.78
2023-03-29T13:03:45.678Z,92403.19
2023-03-29T13:06:31.472Z,92397.03
2023-03-29T13:09:17.742Z,92394.94
2023-03-29T13:12:03.613Z,92390.34
2023-03-29T13:14:49.507Z,92402.41
2023-03-29T13:17:35.517Z,92395.81
2023-03-29T13:20:21.524Z,92398.91
2023-03-29T13:23:07.376Z,92390.00
2023-03-29T13:25:53.212Z,92386.63
2023-03-29T13:28:39.056Z,92399.28
2023-03-29T13:31:25.020Z,92399.19
2023-03-29T13:34:10.955Z,92391.00
2023-03-29T13:36:56.841Z,92388.47
2023-03-29T13:39:42.754Z,92387.13
2023-03-29T13:42:28.596Z,92381.88
2023-03-29T13:45:14.450Z,92388.97
2023-03-29T13:48:05.075Z,92387.38
2023-03-29T13:50:51.903Z,92378.66
2023-03-29T13:53:37.949Z,92383.75
2023-03-29T13:56:23.905Z,92376.00
2023-03-29T13:59:09.836Z,92369.81
2023-03-29T14:01:55.808Z,92358.53
2023-03-29T14:04:41.666Z,92354.94
2023-03-29T14:07:27.365Z,92353.75
2023-03-29T14:10:15.345Z,92351.72
2023-03-29T14:13:04.282Z,92343.97
2023-03-29T14:15:49.963Z,92349.19
2023-03-29T14:18:35.845Z,92345.06
2023-03-29T14:21:21.840Z,92342.25
2023-03-29T14:24:07.706Z,92340.47
2023-03-29T14:26:53.498Z,92333.09
2023-03-29T14:29:39.517Z,92328.41
2023-03-29T14:32:25.478Z,92330.09
2023-03-29T14:35:11.589Z,92327.13
2023-03-29T14:37:57.418Z,92331.84
2023-03-29T14:40:43.374Z,92325.75
2023-03-29T14:43:29.450Z,92326.03
2023-03-29T14:46:15.321Z,92320.84
2023-03-29T14:49:01.188Z,92317.63
2023-03-29T14:51:47.115Z,92311.38
2023-03-29T14:54:33.003Z,92317.97
2023-03-29T14:57:18.974Z,92317.25
2023-03-29T15:00:06.888Z,92311.91
2023-03-29T15:02:52.853Z,92312.16
2023-03-29T15:05:39.148Z,92310.22
2023-03-29T15:08:24.944Z,92304.22
2023-03-29T15:11:10.929Z,92299.50
2023-03-29T15:13:56.808Z,92306.97
2023-03-29T15:16:42.647Z,92300.84
2023-03-29T15:19:28.505Z,92287.13
2023-03-29T15:22:14.437Z,92286.38
2023-03-29T15:25:00.376Z,92294.34
2023-03-29T15:27:46.362Z,92287.06
2023-03-29T15:30:32.118Z,92287.66
2023-03-29T15:33:18.154Z,92289.81
2023-03-29T15:36:04.592Z,92288.53
2023-03-29T15:38:50.818Z,92276.66
2023-03-29T15:41:36.857Z,92281.59
2023-03-29T15:44:22.762Z,92278.22
2023-03-29T15:47:08.737Z,92281.84
2023-03-29T15:49:54.713Z,92274.28
2023-03-29T15:52:40.547Z,92275.63
2023-03-29T15:55:26.447Z,92280.53
2023-03-29T15:58:12.667Z,92268.44
2023-03-29T16:00:58.763Z,92266.63
2023-03-29T16:03:46.263Z,92261.78
2023-03-29T16:06:33.731Z,92261.53
2023-03-29T16:09:19.462Z,92261.03
2023-03-29T16:12:05.347Z,92259.75
2023-03-29T16:14:51.223Z,92260.38
2023-03-29T16:17:37.197Z,92252.94
2023-03-29T16:20:23.175Z,92243.91
2023-03-29T16:23:09.087Z,92248.69
2023-03-29T16:25:54.962Z,92250.25
2023-03-29T16:28:40.877Z,92255.28
2023-03-29T16:31:26.688Z,92256.28
2023-03-29T16:34:12.704Z,92255.19
2023-03-29T16:36:58.516Z,92251.50
2023-03-29T16:39:44.325Z,92245.16
2023-03-29T16:42:30.407Z,92253.53
2023-03-29T16:45:16.319Z,92247.28
2023-03-29T16:48:02.451Z,92247.25
2023-03-29T16:50:48.499Z,92231.81
2023-03-29T16:53:34.577Z,92234.44
2023-03-29T16:56:20.425Z,92235.56
2023-03-29T16:59:06.308Z,92225.03
2023-03-29T17:01:52.391Z,92235.19
2023-03-29T17:04:38.749Z,92230.44
2023-03-29T17:07:24.866Z,92229.91
2023-03-29T17:10:10.853Z,92224.00
2023-03-29T17:12:56.863Z,92221.84
2023-03-29T17:15:42.728Z,92228.84
2023-03-29T17:18:28.680Z,92248.34
2023-03-29T17:21:14.643Z,92251.63
2023-03-29T17:24:00.567Z,92261.97
2023-03-29T17:26:46.594Z,92260.84
2023-03-29T17:29:32.500Z,92253.84
2023-03-29T17:32:18.440Z,92248.91
2023-03-29T17:35:04.327Z,92249.81
2023-03-29T17:37:50.213Z,92249.28
2023-03-29T17:40:36.220Z,92236.00
2023-03-29T17:43:22.231Z,92238.19
2023-03-29T17:46:08.176Z,92229.38
2023-03-29T17:48:54.147Z,92223.59
2023-03-29T17:51:39.871Z,92226.53
2023-03-29T17:54:25.871Z,92229.44
2023-03-29T17:57:11.997Z,92227.28
2023-03-29T17:59:58.217Z,92236.41
2023-03-29T18:02:44.303Z,92251.56
2023-03-29T18:05:30.248Z,92248.56
2023-03-29T18:08:16.189Z,92243.69
2023-03-29T18:11:02.050Z,92241.69
2023-03-29T18:13:47.930Z,92237.59
2023-03-29T18:16:33.846Z,92234.69
2023-03-29T18:19:19.719Z,92237.78
2023-03-29T18:22:05.557Z,92232.38
2023-03-29T18:24:51.484Z,92235.75
2023-03-29T18:27:37.262Z,92234.13
2023-03-29T18:30:23.173Z,92226.19
2023-03-29T18:33:09.026Z,92226.28
2023-03-29T18:35:55.012Z,92227.38
2023-03-29T18:38:41.047Z,92228.13
2023-03-29T18:41:26.820Z,92218.75
2023-03-29T18:44:12.688Z,92222.00
2023-03-29T18:46:58.605Z,92225.25
2023-03-29T18:49:44.518Z,92215.16
2023-03-29T18:52:30.482Z,92224.50
2023-03-29T18:55:16.394Z,92231.03
2023-03-29T18:58:02.234Z,92242.03
2023-03-29T19:00:50.142Z,92251.88
2023-03-29T19:03:36.222Z,92250.13
2023-03-29T19:06:22.315Z,92249.53
2023-03-29T19:09:08.318Z,92252.84
2023-03-29T19:11:54.275Z,92258.25
2023-03-29T19:14:40.269Z,92256.53
2023-03-29T19:17:26.236Z,92258.97
2023-03-29T19:20:12.139Z,92254.41
2023-03-29T19:22:58.053Z,92258.78
2023-03-29T19:25:44.041Z,92262.53
2023-03-29T19:28:29.963Z,92259.31
2023-03-29T19:31:15.941Z,92259.44
2023-03-29T19:34:02.019Z,92260.00
2023-03-29T19:36:47.956Z,92262.28
2023-03-29T19:39:33.985Z,92274.06
2023-03-29T19:42:19.809Z,92267.91
2023-03-29T19:45:05.631Z,92267.84
2023-03-29T19:50:39.221Z,92269.19
2023-03-29T19:53:25.003Z,92267.97
2023-03-29T19:56:11.007Z,92256.09
2023-03-29T19:58:57.247Z,92259.31
2023-03-29T20:01:43.174Z,92248.84
2023-03-29T20:04:29.134Z,92252.34
2023-03-29T20:07:15.356Z,92252.69
2023-03-29T20:10:01.353Z,92249.94
2023-03-29T20:12:47.180Z,92250.28
2023-03-29T20:15:33.097Z,92249.13
2023-03-29T20:18:18.891Z,92245.91
2023-03-29T20:21:05.102Z,92247.50
2023-03-29T20:23:51.138Z,92248.78
2023-03-29T20:26:36.926Z,92245.75
2023-03-29T20:29:22.836Z,92235.91
2023-03-29T20:32:08.926Z,92236.88
2023-03-29T20:34:55.140Z,92236.41
2023-03-29T20:37:40.970Z,92237.50
2023-03-29T20:40:26.797Z,92226.22
2023-03-29T20:43:12.644Z,92230.19
2023-03-29T20:45:58.644Z,92222.28
2023-03-29T20:48:44.320Z,92229.31
2023-03-29T20:51:30.138Z,92219.53
2023-03-29T20:54:15.996Z,92221.50
2023-03-29T20:57:01.917Z,92223.97
2023-03-29T20:59:47.853Z,92225.38
2023-03-29T21:02:33.772Z,92235.47
2023-03-29T21:05:19.791Z,92228.94
2023-03-29T21:08:05.611Z,92230.19
2023-03-29T21:10:51.451Z,92236.34
2023-03-29T21:13:37.450Z,92242.63
2023-03-29T21:16:23.480Z,92238.13
2023-03-29T21:19:11.388Z,92244.63
2023-03-29T21:21:57.294Z,92245.94
2023-03-29T21:24:43.169Z,92244.13
2023-03-29T21:27:28.908Z,92240.09
2023-03-29T21:30:14.759Z,92229.25
2023-03-29T21:33:00.726Z,92219.28
2023-03-29T21:35:47.105Z,92216.91
2023-03-29T21:38:32.968Z,92206.56
2023-03-29T21:41:18.746Z,92201.81
2023-03-29T21:44:04.684Z,92209.22
2023-03-29T21:46:50.677Z,92212.25
2023-03-29T21:49:36.465Z,92207.63
2023-03-29T21:52:22.298Z,92201.97
2023-03-29T21:55:08.123Z,92202.28
2023-03-29T21:57:54.111Z,92215.44
2023-03-29T22:00:40.077Z,92206.31
2023-03-29T22:03:26.447Z,92205.13
2023-03-29T22:06:12.395Z,92204.34
2023-03-29T22:08:58.266Z,92200.47
2023-03-29T22:11:44.178Z,92201.97
2023-03-29T22:14:30.000Z,92202.69
2023-03-29T22:17:15.854Z,92196.16
2023-03-29T22:20:01.677Z,92187.84
2023-03-29T22:23:06.536Z,92184.28
2023-03-29T22:25:52.384Z,92177.47
2023-03-29T22:28:38.259Z,92168.75
2023-03-29T22:31:24.134Z,92172.28
2023-03-29T22:34:09.982Z,92167.94
2023-03-29T22:36:55.924Z,92171.16
2023-03-29T22:39:43.749Z,92164.66
2023-03-29T22:42:29.640Z,92171.88
2023-03-29T22:45:15.613Z,92163.41
2023-03-29T22:48:01.519Z,92168.59
2023-03-29T22:50:47.451Z,92162.63
2023-03-29T22:53:33.408Z,92161.88
2023-03-29T22:56:19.250Z,92156.25
2023-03-29T22:59:05.190Z,92161.50
2023-03-29T23:01:51.115Z,92154.38
2023-03-29T23:04:37.312Z,92155.91
2023-03-29T23:07:23.341Z,92153.63
2023-03-29T23:10:09.248Z,92136.63
2023-03-29T23:12:55.197Z,92134.25
2023-03-29T23:15:41.268Z,92124.41
2023-03-29T23:18:27.266Z,92132.09
2023-03-29T23:21:15.164Z,92124.88
2023-03-29T23:24:01.005Z,92121.06
2023-03-29T23:26:46.690Z,92115.78
2023-03-29T23:29:32.637Z,92113.09
2023-03-29T23:32:18.617Z,92106.03
2023-03-29T23:35:04.540Z,92088.22
2023-03-29T23:37:50.367Z,92077.72
2023-03-29T23:40:36.126Z,92067.13
2023-03-29T23:43:22.091Z,92067.91
2023-03-29T23:46:08.024Z,92072.41
2023-03-29T23:48:53.958Z,92070.84
2023-03-29T23:51:39.889Z,92085.16
2023-03-29T23:54:25.684Z,92095.81
2023-03-29T23:57:11.634Z,92089.22
2023-03-29T23:59:57.662Z,92083.19
